createdAt,value
2017-10-14T00:00:13.179Z,991.1
2017-10-14T00:01:15.240Z,991.1
2017-10-14T00:02:17.259Z,991.1
2017-10-14T00:03:19.182Z,991.1
2017-10-14T00:04:21.170Z,991.1
2017-10-14T00:05:23.383Z,991.1
2017-10-14T00:06:25.301Z,991.1
2017-10-14T00:07:27.345Z,991.1
2017-10-14T00:08:29.273Z,991.1
2017-10-14T00:09:31.365Z,991.2
2017-10-14T00:10:33.521Z,991.1
2017-10-14T00:11:35.581Z,991.1
2017-10-14T00:12:37.600Z,991.1
2017-10-14T00:13:39.805Z,991.1
2017-10-14T00:14:41.893Z,991.1
2017-10-14T00:15:44.163Z,991.2
2017-10-14T00:16:46.623Z,991.1
2017-10-14T00:17:48.774Z,991.1
2017-10-14T00:18:50.950Z,991.1
2017-10-14T00:19:53.448Z,991.2
2017-10-14T00:20:55.737Z,991.2
2017-10-14T00:21:57.758Z,991.2
2017-10-14T00:23:00.000Z,991.2
2017-10-14T00:24:02.117Z,991.2
2017-10-14T00:25:04.225Z,991.2
2017-10-14T00:26:06.111Z,991.1
2017-10-14T00:27:08.327Z,991.2
2017-10-14T00:28:12.670Z,991.1
2017-10-14T00:29:14.507Z,991.2
2017-10-14T00:30:16.466Z,991.2
2017-10-14T00:31:18.685Z,991.2
2017-10-14T00:32:20.693Z,991.2
2017-10-14T00:33:22.667Z,991.1
2017-10-14T00:34:24.535Z,991.2
2017-10-14T00:35:26.693Z,991.1
2017-10-14T00:36:28.642Z,991.1
2017-10-14T00:37:30.597Z,991.1
2017-10-14T00:38:32.621Z,991.2
2017-10-14T00:39:34.672Z,991.1
2017-10-14T00:40:36.519Z,991.2
2017-10-14T00:41:38.528Z,991.2
2017-10-14T00:42:40.497Z,991.1
2017-10-14T00:43:42.566Z,991.1
2017-10-14T00:44:44.509Z,991.1
2017-10-14T00:45:46.456Z,991.1
2017-10-14T00:46:48.478Z,991.1
2017-10-14T00:47:50.330Z,991.1
2017-10-14T00:48:52.195Z,991.1
2017-10-14T00:49:54.089Z,991.1
2017-10-14T00:50:56.185Z,991.1
2017-10-14T00:51:58.304Z,991.2
2017-10-14T00:53:00.227Z,991.1
2017-10-14T00:54:02.067Z,991.1
2017-10-14T00:55:04.028Z,991.1
2017-10-14T00:56:06.052Z,991.2
2017-10-14T00:57:08.064Z,991.2
2017-10-14T00:58:10.003Z,991.2
2017-10-14T00:59:12.003Z,991.2
2017-10-14T01:00:14.168Z,991.3
2017-10-14T01:01:16.135Z,991.2
2017-10-14T01:02:18.121Z,991.2
2017-10-14T01:03:19.993Z,991.2
2017-10-14T01:04:21.877Z,991.2
2017-10-14T01:05:24.575Z,991.2
2017-10-14T01:06:26.613Z,991.2
2017-10-14T01:07:28.602Z,991.2
2017-10-14T01:08:30.548Z,991.2
2017-10-14T01:09:32.655Z,991.2
2017-10-14T01:10:34.475Z,991.2
2017-10-14T01:11:36.339Z,991.2
2017-10-14T01:12:38.231Z,991.2
2017-10-14T01:13:40.108Z,991.2
2017-10-14T01:14:42.036Z,991.2
2017-10-14T01:15:44.005Z,991.2
2017-10-14T01:16:45.910Z,991.3
2017-10-14T01:17:47.830Z,991.2
2017-10-14T01:18:49.770Z,991.3
2017-10-14T01:19:51.668Z,991.3
2017-10-14T01:20:53.609Z,991.2
2017-10-14T01:21:55.491Z,991.2
2017-10-14T01:22:57.435Z,991.1
2017-10-14T01:23:59.381Z,991.2
2017-10-14T01:25:01.304Z,991.2
2017-10-14T01:26:03.351Z,991.2
2017-10-14T01:27:05.342Z,991.1
2017-10-14T01:28:07.335Z,991.2
2017-10-14T01:29:09.212Z,991.2
2017-10-14T01:30:11.140Z,991.1
2017-10-14T01:31:13.204Z,991.2
2017-10-14T01:32:15.116Z,991.1
2017-10-14T01:33:17.042Z,991.1
2017-10-14T01:34:18.899Z,991.1
2017-10-14T01:35:20.793Z,991.1
2017-10-14T01:36:22.705Z,991.2
2017-10-14T01:37:25.009Z,991.1
2017-10-14T01:38:27.099Z,991.2
2017-10-14T01:39:29.070Z,991.2
2017-10-14T01:40:31.067Z,991.1
2017-10-14T01:41:32.992Z,991.1
2017-10-14T01:42:34.939Z,991.1
2017-10-14T01:43:37.012Z,991.1
2017-10-14T01:44:39.015Z,991.2
2017-10-14T01:45:40.929Z,991.1
2017-10-14T01:46:42.796Z,991.2
2017-10-14T01:47:44.681Z,991.2
2017-10-14T01:48:47.043Z,991.2
2017-10-14T01:49:49.052Z,991.2
2017-10-14T01:50:51.030Z,991.2
2017-10-14T01:51:52.986Z,991.1
2017-10-14T01:52:54.927Z,991.1
2017-10-14T01:53:56.882Z,991.1
2017-10-14T01:54:58.871Z,991.1
2017-10-14T01:56:01.073Z,991.1
2017-10-14T01:57:03.052Z,991.2
2017-10-14T01:58:04.906Z,991.1
2017-10-14T01:59:06.850Z,991.1
2017-10-14T02:00:08.721Z,991.1
2017-10-14T02:01:10.630Z,991.1
2017-10-14T02:02:12.786Z,991
2017-10-14T02:03:14.691Z,991.1
2017-10-14T02:04:16.577Z,991
2017-10-14T02:05:18.479Z,991.1
2017-10-14T02:06:20.425Z,991.1
2017-10-14T02:07:22.343Z,991.1
2017-10-14T02:08:24.330Z,991.1
2017-10-14T02:09:26.328Z,991.1
2017-10-14T02:10:28.286Z,991.2
2017-10-14T02:11:30.327Z,991.1
2017-10-14T02:12:32.241Z,991.1
2017-10-14T02:13:34.199Z,991.1
2017-10-14T02:14:36.127Z,991.2
2017-10-14T02:15:37.981Z,991.1
2017-10-14T02:16:39.860Z,991.1
2017-10-14T02:17:41.802Z,991.1
2017-10-14T02:18:43.792Z,991.1
2017-10-14T02:19:45.777Z,991.1
2017-10-14T02:20:47.698Z,991.1
2017-10-14T02:21:49.652Z,991
2017-10-14T02:22:51.585Z,991.1
2017-10-14T02:23:53.448Z,991.1
2017-10-14T02:24:55.421Z,991.1
2017-10-14T02:25:57.479Z,991.1
2017-10-14T02:26:59.493Z,991.1
2017-10-14T02:28:01.423Z,991
2017-10-14T02:29:03.368Z,991
2017-10-14T02:30:05.264Z,991
2017-10-14T02:31:07.184Z,991
2017-10-14T02:32:09.103Z,991
2017-10-14T02:33:11.070Z,991
2017-10-14T02:34:12.993Z,991
2017-10-14T02:35:15.602Z,991
2017-10-14T02:36:17.523Z,991.1
2017-10-14T02:37:19.603Z,991.1
2017-10-14T02:38:21.451Z,991.1
2017-10-14T02:39:23.336Z,991.2
2017-10-14T02:40:25.303Z,991.2
2017-10-14T02:41:27.375Z,991.2
2017-10-14T02:42:29.396Z,991.2
2017-10-14T02:43:31.450Z,991.2
2017-10-14T02:44:33.417Z,991.2
2017-10-14T02:45:35.390Z,991.2
2017-10-14T02:46:37.357Z,991.2
2017-10-14T02:47:39.246Z,991.3
2017-10-14T02:48:41.223Z,991.2
2017-10-14T02:49:43.154Z,991.2
2017-10-14T02:50:45.089Z,991.2
2017-10-14T02:51:46.979Z,991.2
2017-10-14T02:52:48.911Z,991.2
2017-10-14T02:53:51.002Z,991.2
2017-10-14T02:54:52.944Z,991.1
2017-10-14T02:55:54.881Z,991.2
2017-10-14T02:56:56.719Z,991.1
2017-10-14T02:57:59.282Z,991.1
2017-10-14T02:59:01.450Z,991.1
2017-10-14T03:00:03.340Z,991.1
2017-10-14T03:01:05.660Z,991.1
2017-10-14T03:02:07.644Z,991.1
2017-10-14T03:03:09.525Z,991.1
2017-10-14T03:04:11.604Z,991.1
2017-10-14T03:05:13.492Z,991.1
2017-10-14T03:06:15.494Z,991.1
2017-10-14T03:07:17.405Z,991.1
2017-10-14T03:08:19.300Z,991.2
2017-10-14T03:09:21.186Z,991.1
2017-10-14T03:10:23.078Z,991.1
2017-10-14T03:11:24.972Z,991.1
2017-10-14T03:12:26.875Z,991.1
2017-10-14T03:13:28.770Z,991
2017-10-14T03:14:30.673Z,991.1
2017-10-14T03:15:32.634Z,991.1
2017-10-14T03:16:34.589Z,991.2
2017-10-14T03:17:36.547Z,991.1
2017-10-14T03:18:38.477Z,991
2017-10-14T03:19:40.582Z,991.1
2017-10-14T03:20:42.560Z,991.1
2017-10-14T03:21:44.451Z,991.2
2017-10-14T03:22:46.509Z,991.3
2017-10-14T03:23:48.485Z,991.1
2017-10-14T03:24:50.342Z,991.1
2017-10-14T03:25:52.201Z,991
2017-10-14T03:26:54.172Z,991
2017-10-14T03:27:56.053Z,991
2017-10-14T03:28:57.928Z,991
2017-10-14T03:30:00.132Z,991.1
2017-10-14T03:31:02.088Z,991.1
2017-10-14T03:32:04.079Z,991.1
2017-10-14T03:33:06.141Z,991.1
2017-10-14T03:34:08.136Z,991.1
2017-10-14T03:35:10.105Z,991
2017-10-14T03:36:12.073Z,991
2017-10-14T03:37:14.113Z,991
2017-10-14T03:38:16.060Z,991.1
2017-10-14T03:39:17.971Z,991
2017-10-14T03:40:19.862Z,991
2017-10-14T03:41:21.772Z,991.1
2017-10-14T03:42:23.669Z,991
2017-10-14T03:43:25.607Z,991
2017-10-14T03:44:27.587Z,991
2017-10-14T03:45:29.539Z,991.1
2017-10-14T03:46:31.615Z,991.1
2017-10-14T03:47:33.540Z,991.2
2017-10-14T03:48:35.456Z,991.1
2017-10-14T03:49:37.334Z,991
2017-10-14T03:50:39.274Z,991.1
2017-10-14T03:51:41.332Z,991
2017-10-14T03:52:43.328Z,991
2017-10-14T03:53:45.216Z,991.1
2017-10-14T03:54:47.166Z,991.1
2017-10-14T03:55:49.106Z,991.1
2017-10-14T03:56:51.430Z,991.1
2017-10-14T03:57:53.499Z,991.1
2017-10-14T03:58:55.437Z,991.1
2017-10-14T03:59:57.315Z,991.1
2017-10-14T04:00:59.382Z,991.1
2017-10-14T04:02:01.314Z,991.1
2017-10-14T04:03:03.262Z,991.1
2017-10-14T04:04:05.164Z,991
2017-10-14T04:05:07.129Z,991.1
2017-10-14T04:06:09.100Z,991.2
2017-10-14T04:07:10.977Z,991
2017-10-14T04:08:12.970Z,991.1
2017-10-14T04:09:14.868Z,991.1
2017-10-14T04:10:16.805Z,991.1
2017-10-14T04:11:18.995Z,991.1
2017-10-14T04:12:20.882Z,991.1
2017-10-14T04:13:22.884Z,991.1
2017-10-14T04:14:24.819Z,991.1
2017-10-14T04:15:26.673Z,991.1
2017-10-14T04:16:28.629Z,991.2
2017-10-14T04:17:30.510Z,991.2
2017-10-14T04:18:32.432Z,991.2
2017-10-14T04:19:34.337Z,991.1
2017-10-14T04:20:36.458Z,991.2
2017-10-14T04:21:38.409Z,991.2
2017-10-14T04:22:40.312Z,991.2
2017-10-14T04:23:42.343Z,991.2
2017-10-14T04:24:44.308Z,991.2
2017-10-14T04:25:46.367Z,991.2
2017-10-14T04:26:48.264Z,991.2
2017-10-14T04:27:50.179Z,991.1
2017-10-14T04:28:52.225Z,991.2
2017-10-14T04:29:54.137Z,991.2
2017-10-14T04:30:56.033Z,991.2
2017-10-14T04:31:58.068Z,991.2
2017-10-14T04:32:59.930Z,991.2
2017-10-14T04:34:01.859Z,991.2
2017-10-14T04:35:03.741Z,991.3
2017-10-14T04:36:05.665Z,991.2
2017-10-14T04:37:07.725Z,991.2
2017-10-14T04:38:09.729Z,991.2
2017-10-14T04:39:11.673Z,991.2
2017-10-14T04:40:13.704Z,991.2
2017-10-14T04:41:15.669Z,991.2
2017-10-14T04:42:17.652Z,991.3
2017-10-14T04:43:19.560Z,991.2
2017-10-14T04:44:21.500Z,991.2
2017-10-14T04:45:23.420Z,991.1
2017-10-14T04:46:25.424Z,991.2
2017-10-14T04:47:27.661Z,991.2
2017-10-14T04:48:29.626Z,991.2
2017-10-14T04:49:31.694Z,991.2
2017-10-14T04:50:33.627Z,991.2
2017-10-14T04:51:35.537Z,991.2
2017-10-14T04:52:37.456Z,991.2
2017-10-14T04:53:39.381Z,991.1
2017-10-14T04:54:41.312Z,991.2
2017-10-14T04:55:43.264Z,991
2017-10-14T04:56:45.244Z,991.1
2017-10-14T04:57:47.355Z,991.1
2017-10-14T04:58:49.277Z,991.1
2017-10-14T04:59:51.484Z,991.1
2017-10-14T05:00:53.357Z,991.1
2017-10-14T05:01:55.294Z,991.1
2017-10-14T05:02:57.334Z,991.1
2017-10-14T05:03:59.230Z,991.1
2017-10-14T05:05:01.182Z,991.1
2017-10-14T05:06:03.159Z,991.1
2017-10-14T05:07:05.035Z,991.1
2017-10-14T05:08:06.965Z,991.2
2017-10-14T05:09:09.061Z,991.2
2017-10-14T05:10:10.992Z,991.1
2017-10-14T05:11:13.040Z,991.1
2017-10-14T05:12:14.991Z,991.1
2017-10-14T05:13:16.900Z,991.1
2017-10-14T05:14:18.805Z,991.2
2017-10-14T05:15:20.700Z,991.1
2017-10-14T05:16:22.531Z,991.1
2017-10-14T05:17:24.399Z,991.1
2017-10-14T05:18:26.333Z,991.1
2017-10-14T05:19:28.270Z,991.1
2017-10-14T05:20:30.190Z,991.1
2017-10-14T05:21:32.132Z,991.1
2017-10-14T05:22:34.330Z,991.1
2017-10-14T05:23:36.279Z,991.1
2017-10-14T05:24:38.204Z,991.1
2017-10-14T05:25:40.162Z,991.2
2017-10-14T05:26:42.073Z,991.1
2017-10-14T05:27:44.788Z,991.2
2017-10-14T05:28:46.729Z,991.1
2017-10-14T05:29:48.629Z,991.1
2017-10-14T05:30:50.586Z,991.1
2017-10-14T05:31:52.535Z,991.1
2017-10-14T05:32:54.495Z,991.1
2017-10-14T05:33:56.386Z,991.3
2017-10-14T05:34:58.259Z,991.1
2017-10-14T05:36:00.225Z,991.1
2017-10-14T05:37:02.118Z,991.2
2017-10-14T05:38:04.003Z,991.1
2017-10-14T05:39:05.920Z,991.2
2017-10-14T05:40:07.856Z,991.2
2017-10-14T05:41:09.699Z,991.1
2017-10-14T05:42:11.588Z,991.1
2017-10-14T05:43:13.484Z,991.1
2017-10-14T05:44:15.333Z,991.1
2017-10-14T05:45:17.260Z,991.2
2017-10-14T05:46:19.214Z,991.2
2017-10-14T05:47:21.111Z,991.2
2017-10-14T05:48:23.065Z,991.2
2017-10-14T05:49:25.047Z,991.1
2017-10-14T05:50:26.912Z,991.3
2017-10-14T05:51:28.815Z,991.2
2017-10-14T05:52:30.738Z,991.2
2017-10-14T05:53:32.691Z,991.3
2017-10-14T05:54:34.600Z,991.3
2017-10-14T05:55:36.532Z,991.2
2017-10-14T05:56:38.543Z,991.3
2017-10-14T05:57:40.539Z,991.2
2017-10-14T05:58:42.382Z,991.2
2017-10-14T05:59:44.274Z,991.2
2017-10-14T06:00:46.217Z,991.3
2017-10-14T06:01:48.310Z,991.2
2017-10-14T06:02:50.262Z,991.2
2017-10-14T06:03:52.777Z,991.3
2017-10-14T06:04:54.709Z,991.3
2017-10-14T06:05:56.600Z,991.2
2017-10-14T06:06:58.627Z,991.2
2017-10-14T06:08:00.542Z,991.3
2017-10-14T06:09:02.477Z,991.4
2017-10-14T06:10:04.338Z,991.3
2017-10-14T06:11:06.251Z,991.3
2017-10-14T06:12:08.148Z,991.3
2017-10-14T06:13:10.019Z,991.3
2017-10-14T06:14:11.954Z,991.3
2017-10-14T06:15:13.827Z,991.4
2017-10-14T06:16:15.741Z,991.3
2017-10-14T06:17:17.736Z,991.4
2017-10-14T06:18:19.670Z,991.4
2017-10-14T06:19:21.602Z,991.4
2017-10-14T06:20:23.593Z,991.5
2017-10-14T06:21:25.661Z,991.4
2017-10-14T06:22:27.792Z,991.4
2017-10-14T06:23:29.709Z,991.5
2017-10-14T06:24:31.613Z,991.4
2017-10-14T06:25:33.510Z,991.5
2017-10-14T06:26:35.407Z,991.6
2017-10-14T06:27:37.338Z,991.4
2017-10-14T06:28:39.285Z,991.4
2017-10-14T06:29:41.259Z,991.5
2017-10-14T06:30:43.344Z,991.5
2017-10-14T06:31:45.266Z,991.6
2017-10-14T06:32:47.179Z,991.6
2017-10-14T06:33:49.076Z,991.5
2017-10-14T06:34:51.044Z,991.6
2017-10-14T06:35:52.937Z,991.5
2017-10-14T06:36:54.865Z,991.5
2017-10-14T06:37:56.764Z,991.6
2017-10-14T06:38:58.705Z,991.6
2017-10-14T06:40:00.648Z,991.6
2017-10-14T06:41:02.806Z,991.6
2017-10-14T06:42:04.717Z,991.6
2017-10-14T06:43:06.629Z,991.6
2017-10-14T06:44:08.537Z,991.7
2017-10-14T06:45:10.505Z,991.7
2017-10-14T06:46:12.369Z,991.7
2017-10-14T06:47:14.248Z,991.7
2017-10-14T06:48:16.188Z,991.7
2017-10-14T06:49:18.058Z,991.7
2017-10-14T06:50:19.921Z,991.8
2017-10-14T06:51:21.756Z,991.7
2017-10-14T06:52:23.596Z,991.7
2017-10-14T06:53:25.504Z,991.9
2017-10-14T06:54:27.377Z,991.8
2017-10-14T06:55:29.296Z,991.8
2017-10-14T06:56:31.226Z,991.8
2017-10-14T06:57:33.188Z,992
2017-10-14T06:58:35.092Z,991.9
2017-10-14T06:59:36.993Z,991.9
2017-10-14T07:00:38.953Z,991.8
2017-10-14T07:01:40.887Z,991.9
2017-10-14T07:02:42.821Z,991.8
2017-10-14T07:03:44.969Z,991.9
2017-10-14T07:04:46.882Z,991.9
2017-10-14T07:05:48.817Z,991.8
2017-10-14T07:06:50.710Z,991.9
2017-10-14T07:07:52.552Z,991.8
2017-10-14T07:08:54.496Z,991.9
2017-10-14T07:09:56.676Z,991.9
2017-10-14T07:10:58.604Z,991.9
2017-10-14T07:12:00.567Z,991.9
2017-10-14T07:13:02.384Z,992
2017-10-14T07:14:04.333Z,991.9
2017-10-14T07:15:06.230Z,991.9
2017-10-14T07:16:08.155Z,992
2017-10-14T07:17:10.041Z,992
2017-10-14T07:18:11.923Z,991.9
2017-10-14T07:19:13.903Z,992
2017-10-14T07:20:15.784Z,992
2017-10-14T07:21:17.694Z,991.9
2017-10-14T07:22:19.607Z,991.9
2017-10-14T07:23:21.501Z,991.9
2017-10-14T07:24:23.412Z,991.9
2017-10-14T07:25:25.253Z,991.9
2017-10-14T07:26:27.125Z,991.9
2017-10-14T07:27:29.002Z,992
2017-10-14T07:28:30.914Z,992
2017-10-14T07:29:32.806Z,992
2017-10-14T07:30:34.732Z,992
2017-10-14T07:31:36.577Z,992
2017-10-14T07:32:38.508Z,992
2017-10-14T07:33:40.524Z,992
2017-10-14T07:34:42.523Z,992.1
2017-10-14T07:35:44.375Z,992
2017-10-14T07:36:46.322Z,992.1
2017-10-14T07:37:48.205Z,992.1
2017-10-14T07:38:50.118Z,992
2017-10-14T07:39:52.080Z,992.1
2017-10-14T07:40:53.941Z,992
2017-10-14T07:41:55.934Z,992.1
2017-10-14T07:42:57.935Z,992.2
2017-10-14T07:43:59.825Z,992.1
2017-10-14T07:45:01.786Z,992.1
2017-10-14T07:46:03.880Z,992.1
2017-10-14T07:47:05.734Z,992.2
2017-10-14T07:48:07.593Z,992.2
2017-10-14T07:49:09.495Z,992.2
2017-10-14T07:50:11.580Z,992.2
2017-10-14T07:51:13.493Z,992.3
2017-10-14T07:52:15.370Z,992.2
2017-10-14T07:53:17.320Z,992.3
2017-10-14T07:54:19.261Z,992.4
2017-10-14T07:55:21.150Z,992.3
2017-10-14T07:56:23.117Z,992.3
2017-10-14T07:57:24.966Z,992.3
2017-10-14T07:58:26.808Z,992.3
2017-10-14T07:59:28.678Z,992.4
2017-10-14T08:00:30.640Z,992.4
2017-10-14T08:01:32.552Z,992.3
2017-10-14T08:02:34.489Z,992.4
2017-10-14T08:03:36.393Z,992.4
2017-10-14T08:04:38.318Z,992.4
2017-10-14T08:05:40.192Z,992.4
2017-10-14T08:06:42.108Z,992.4
2017-10-14T08:07:44.014Z,992.4
2017-10-14T08:08:45.954Z,992.5
2017-10-14T08:09:47.826Z,992.4
2017-10-14T08:10:49.800Z,992.4
2017-10-14T08:11:51.773Z,992.4
2017-10-14T08:12:53.659Z,992.4
2017-10-14T08:13:55.558Z,992.4
2017-10-14T08:14:57.461Z,992.5
2017-10-14T08:15:59.394Z,992.5
2017-10-14T08:17:01.284Z,992.5
2017-10-14T08:18:03.164Z,992.5
2017-10-14T08:19:05.113Z,992.6
2017-10-14T08:20:07.100Z,992.5
2017-10-14T08:21:09.075Z,992.5
2017-10-14T08:22:10.995Z,992.5
2017-10-14T08:23:12.833Z,992.5
2017-10-14T08:24:14.742Z,992.6
2017-10-14T08:25:16.679Z,992.4
2017-10-14T08:26:18.600Z,992.5
2017-10-14T08:27:20.483Z,992.5
2017-10-14T08:28:22.419Z,992.5
2017-10-14T08:29:24.390Z,992.5
2017-10-14T08:30:26.292Z,992.5
2017-10-14T08:31:28.268Z,992.5
2017-10-14T08:32:30.113Z,992.6
2017-10-14T08:33:32.046Z,992.6
2017-10-14T08:34:34.022Z,992.6
2017-10-14T08:35:35.997Z,992.7
2017-10-14T08:36:37.957Z,992.7
2017-10-14T08:37:39.866Z,992.7
2017-10-14T08:38:41.799Z,992.6
2017-10-14T08:39:43.692Z,992.6
2017-10-14T08:40:45.550Z,992.6
2017-10-14T08:41:47.436Z,992.5
2017-10-14T08:42:49.330Z,992.6
2017-10-14T08:43:51.272Z,992.5
2017-10-14T08:44:53.146Z,992.5
2017-10-14T08:45:55.019Z,992.5
2017-10-14T08:46:56.981Z,992.5
2017-10-14T08:47:58.902Z,992.5
2017-10-14T08:49:00.863Z,992.6
2017-10-14T08:50:02.811Z,992.6
2017-10-14T08:51:04.672Z,992.6
2017-10-14T08:52:06.678Z,992.6
2017-10-14T08:53:08.577Z,992.5
2017-10-14T08:54:10.460Z,992.5
2017-10-14T08:55:12.422Z,992.5
2017-10-14T08:56:14.362Z,992.5
2017-10-14T08:57:16.420Z,992.7
2017-10-14T08:58:18.367Z,992.6
2017-10-14T08:59:20.206Z,992.5
2017-10-14T09:00:22.104Z,992.6
2017-10-14T09:01:24.002Z,992.5
2017-10-14T09:02:25.952Z,992.4
2017-10-14T09:03:28.040Z,992.7
2017-10-14T09:04:29.983Z,992.9
2017-10-14T09:05:31.927Z,992.9
2017-10-14T09:06:33.845Z,992.6
2017-10-14T09:07:35.914Z,992.6
2017-10-14T09:08:37.769Z,992.7
2017-10-14T09:09:39.744Z,992.7
2017-10-14T09:10:41.657Z,992.6
2017-10-14T09:11:43.594Z,992.6
2017-10-14T09:12:45.578Z,992.6
2017-10-14T09:13:47.485Z,992.6
2017-10-14T09:14:49.384Z,992.5
2017-10-14T09:15:51.291Z,992.8
2017-10-14T09:16:53.175Z,992.6
2017-10-14T09:17:55.358Z,992.6
2017-10-14T09:18:57.268Z,992.6
2017-10-14T09:19:59.130Z,992.8
2017-10-14T09:21:01.011Z,992.7
2017-10-14T09:22:02.967Z,992.8
2017-10-14T09:23:04.935Z,992.6
2017-10-14T09:24:06.878Z,992.5
2017-10-14T09:25:08.823Z,992.4
2017-10-14T09:26:10.849Z,992.6
2017-10-14T09:27:12.795Z,992.7
2017-10-14T09:28:14.771Z,992.7
2017-10-14T09:29:16.753Z,992.6
2017-10-14T09:30:18.891Z,992.6
2017-10-14T09:31:20.859Z,992.7
2017-10-14T09:32:22.758Z,992.7
2017-10-14T09:33:24.732Z,992.5
2017-10-14T09:34:26.641Z,992.1
2017-10-14T09:35:28.498Z,992.3
2017-10-14T09:36:30.391Z,992
2017-10-14T09:37:32.280Z,991.7
2017-10-14T09:38:34.244Z,992.3
2017-10-14T09:39:36.149Z,992.7
2017-10-14T09:40:38.073Z,992.6
2017-10-14T09:41:40.016Z,992.3
2017-10-14T09:42:42.663Z,992.6
2017-10-14T09:43:44.608Z,992.5
2017-10-14T09:44:46.704Z,992
2017-10-14T09:45:48.545Z,992
2017-10-14T09:46:50.400Z,991.5
2017-10-14T09:47:52.351Z,991.6
2017-10-14T09:48:54.310Z,991.5
2017-10-14T09:49:56.276Z,991.5
2017-10-14T09:50:58.146Z,991.6
2017-10-14T09:52:00.072Z,991.5
2017-10-14T09:53:02.144Z,991.6
2017-10-14T09:54:04.060Z,991.6
2017-10-14T09:55:05.972Z,991.5
2017-10-14T09:56:07.921Z,991.5
2017-10-14T09:57:09.877Z,991.6
2017-10-14T09:58:11.740Z,991.5
2017-10-14T09:59:13.672Z,991.6
2017-10-14T10:00:15.553Z,991.6
2017-10-14T10:01:17.407Z,991.5
2017-10-14T10:02:19.289Z,991.5
2017-10-14T10:03:21.261Z,991.6
2017-10-14T10:04:23.219Z,991.6
2017-10-14T10:05:25.165Z,991.6
2017-10-14T10:06:27.026Z,991.6
2017-10-14T10:07:28.914Z,991.6
2017-10-14T10:08:30.780Z,991.8
2017-10-14T10:09:32.681Z,991.6
2017-10-14T10:10:34.620Z,991.6
2017-10-14T10:11:36.534Z,991.6
2017-10-14T10:12:38.549Z,991.6
2017-10-14T10:13:40.494Z,991.6
2017-10-14T10:14:42.484Z,991.5
2017-10-14T10:15:44.487Z,991.6
2017-10-14T10:16:46.420Z,991.7
2017-10-14T10:17:48.338Z,991.6
2017-10-14T10:18:50.326Z,991.6
2017-10-14T10:19:52.283Z,991.6
2017-10-14T10:20:54.239Z,991.8
2017-10-14T10:21:56.219Z,991.9
2017-10-14T10:22:58.170Z,991.8
2017-10-14T10:24:00.065Z,991.7
2017-10-14T10:25:02.061Z,991.8
2017-10-14T10:26:04.016Z,991.9
2017-10-14T10:27:06.077Z,991.9
2017-10-14T10:28:08.061Z,991.9
2017-10-14T10:29:10.050Z,991.7
2017-10-14T10:30:11.982Z,991.7
2017-10-14T10:31:13.887Z,991.7
2017-10-14T10:32:15.809Z,991.8
2017-10-14T10:33:17.730Z,991.8
2017-10-14T10:34:19.582Z,991.7
2017-10-14T10:35:21.531Z,991.7
2017-10-14T10:36:23.908Z,991.8
2017-10-14T10:37:25.803Z,991.8
2017-10-14T10:38:27.731Z,991.7
2017-10-14T10:39:29.633Z,991.8
2017-10-14T10:40:31.629Z,991.9
2017-10-14T10:41:34.163Z,991.8
2017-10-14T10:42:36.063Z,991.7
2017-10-14T10:43:38.059Z,991.9
2017-10-14T10:44:39.994Z,991.8
2017-10-14T10:45:41.996Z,991.9
2017-10-14T10:46:43.973Z,991.8
2017-10-14T10:47:46.158Z,991.9
2017-10-14T10:48:48.185Z,991.8
2017-10-14T10:49:50.720Z,991.7
2017-10-14T10:50:52.691Z,991.7
2017-10-14T10:51:54.617Z,991.6
2017-10-14T10:52:56.741Z,991.7
2017-10-14T10:53:58.671Z,991.7
2017-10-14T10:55:00.566Z,991.8
2017-10-14T10:56:02.755Z,991.6
2017-10-14T10:57:04.651Z,991.7
2017-10-14T10:58:06.582Z,991.6
2017-10-14T10:59:08.533Z,991.5
2017-10-14T11:00:10.458Z,991.6
2017-10-14T11:01:12.658Z,991.6
2017-10-14T11:02:14.600Z,991.5
2017-10-14T11:03:16.562Z,991.6
2017-10-14T11:04:18.604Z,991.5
2017-10-14T11:05:20.597Z,991.4
2017-10-14T11:06:22.798Z,991.5
2017-10-14T11:07:24.734Z,991.5
2017-10-14T11:08:26.666Z,991.6
2017-10-14T11:09:28.564Z,991.6
2017-10-14T11:10:30.563Z,991.5
2017-10-14T11:11:32.556Z,991.4
2017-10-14T11:12:34.472Z,991.5
2017-10-14T11:13:36.413Z,991.5
2017-10-14T11:14:38.304Z,991.5
2017-10-14T11:15:40.188Z,991.6
2017-10-14T11:16:42.170Z,991.6
2017-10-14T11:17:44.082Z,991.7
2017-10-14T11:18:45.981Z,991.6
2017-10-14T11:19:47.970Z,991.6
2017-10-14T11:20:50.129Z,991.6
2017-10-14T11:21:52.128Z,991.4
2017-10-14T11:22:54.101Z,991.4
2017-10-14T11:23:56.041Z,991.4
2017-10-14T11:24:58.046Z,991.4
2017-10-14T11:26:00.183Z,991.5
2017-10-14T11:27:02.153Z,991.4
2017-10-14T11:28:04.050Z,991.3
2017-10-14T11:29:05.942Z,991.3
2017-10-14T11:30:07.955Z,991.4
2017-10-14T11:31:10.043Z,991.3
2017-10-14T11:32:12.047Z,991.4
2017-10-14T11:33:14.027Z,991.2
2017-10-14T11:34:16.011Z,991.4
2017-10-14T11:35:18.038Z,991.5
2017-10-14T11:36:20.047Z,991.5
2017-10-14T11:37:21.987Z,991.4
2017-10-14T11:38:23.972Z,991.4
2017-10-14T11:39:25.939Z,991.3
2017-10-14T11:40:27.911Z,991.4
2017-10-14T11:41:29.816Z,991.6
2017-10-14T11:42:31.788Z,991.5
2017-10-14T11:43:33.816Z,991.5
2017-10-14T11:44:35.715Z,991.4
2017-10-14T11:45:37.698Z,991.3
2017-10-14T11:46:39.647Z,991.3
2017-10-14T11:47:41.608Z,991.4
2017-10-14T11:48:43.679Z,991.4
2017-10-14T11:49:45.588Z,991.5
2017-10-14T11:50:47.517Z,991.6
2017-10-14T11:51:49.474Z,991.3
2017-10-14T11:52:51.444Z,991.3
2017-10-14T11:53:53.377Z,991.5
2017-10-14T11:54:55.318Z,991.4
2017-10-14T11:55:57.211Z,991.4
2017-10-14T11:56:59.172Z,991.3
2017-10-14T11:58:01.121Z,991.2
2017-10-14T11:59:03.035Z,991.2
2017-10-14T12:00:04.926Z,991.2
2017-10-14T12:01:06.879Z,991.2
2017-10-14T12:02:08.746Z,991.3
2017-10-14T12:03:10.684Z,991.1
2017-10-14T12:04:12.538Z,991.1
2017-10-14T12:05:14.423Z,990.9
2017-10-14T12:06:16.347Z,991
2017-10-14T12:07:18.275Z,991.1
2017-10-14T12:08:20.332Z,991
2017-10-14T12:09:22.181Z,991.1
2017-10-14T12:10:24.136Z,991.1
2017-10-14T12:11:26.044Z,991
2017-10-14T12:12:28.007Z,991
2017-10-14T12:13:29.953Z,991.2
2017-10-14T12:14:31.882Z,991
2017-10-14T12:15:33.760Z,991.1
2017-10-14T12:16:35.709Z,991.2
2017-10-14T12:17:37.644Z,991.1
2017-10-14T12:18:39.604Z,991.2
2017-10-14T12:19:41.559Z,991.2
2017-10-14T12:20:43.516Z,991.1
2017-10-14T12:21:45.465Z,991
2017-10-14T12:22:47.393Z,991.1
2017-10-14T12:23:49.346Z,991.2
2017-10-14T12:24:51.389Z,991.2
2017-10-14T12:25:53.364Z,991.2
2017-10-14T12:26:55.233Z,991.2
2017-10-14T12:27:57.225Z,990.9
2017-10-14T12:28:59.156Z,991
2017-10-14T12:30:01.023Z,990.9
2017-10-14T12:31:02.933Z,991.1
2017-10-14T12:32:04.844Z,991
2017-10-14T12:33:06.744Z,991
2017-10-14T12:34:08.660Z,991
2017-10-14T12:35:10.608Z,991
2017-10-14T12:36:12.529Z,991.1
2017-10-14T12:37:14.424Z,991
2017-10-14T12:38:16.359Z,991
2017-10-14T12:39:18.395Z,990.7
2017-10-14T12:40:20.916Z,990.9
2017-10-14T12:41:22.830Z,991.2
2017-10-14T12:42:24.783Z,991.1
2017-10-14T12:43:26.692Z,991
2017-10-14T12:44:28.689Z,990.9
2017-10-14T12:45:30.595Z,990.9
2017-10-14T12:46:32.518Z,990.9
2017-10-14T12:47:34.418Z,990.9
2017-10-14T12:48:36.363Z,990.8
2017-10-14T12:49:38.317Z,990.9
2017-10-14T12:50:40.245Z,990.9
2017-10-14T12:51:42.188Z,991
2017-10-14T12:52:44.169Z,991
2017-10-14T12:53:46.103Z,991
2017-10-14T12:54:48.058Z,990.7
2017-10-14T12:55:50.047Z,990.9
2017-10-14T12:56:51.958Z,990.9
2017-10-14T12:57:53.814Z,990.9
2017-10-14T12:58:55.718Z,991
2017-10-14T12:59:57.615Z,991
2017-10-14T13:00:59.595Z,990.8
2017-10-14T13:02:01.459Z,990.8
2017-10-14T13:03:03.417Z,990.9
2017-10-14T13:04:05.350Z,990.8
2017-10-14T13:05:07.299Z,990.8
2017-10-14T13:06:09.212Z,990.9
2017-10-14T13:07:11.091Z,991
2017-10-14T13:08:12.986Z,991
2017-10-14T13:09:14.863Z,990.8
2017-10-14T13:10:16.813Z,990.7
2017-10-14T13:11:18.737Z,990.8
2017-10-14T13:12:20.626Z,990.9
2017-10-14T13:13:22.565Z,990.9
2017-10-14T13:14:24.568Z,990.7
2017-10-14T13:15:26.494Z,990.8
2017-10-14T13:16:28.404Z,990.8
2017-10-14T13:17:30.435Z,990.9
2017-10-14T13:18:32.414Z,990.8
2017-10-14T13:19:34.366Z,990.9
2017-10-14T13:20:36.332Z,990.6
2017-10-14T13:21:38.211Z,990.6
2017-10-14T13:22:40.172Z,990.7